Friday, November 24, 2017, 8:11 AM EST
Back to Local

KCEF, Chicopee Falls / Westover Air Force Base

Location: Chicopee, MA, United States Lat: 42.2
Local Time: 8:11 AM EST (13:11 GMT) Lon: -72.533
Time Zone: US/Eastern Elev: 246 ft

Show me the last for .
Show Decoded

2017-11-24 06:56 METAR KCEF 241156Z 00000KT 10SM FEW020 M05/M07 A3000 RMK AO2A SLP168 T10551073
                 11025 21055 53006 =
2017-11-24 05:56 METAR KCEF 241056Z AUTO 00000KT 10SM CLR M04/M07 A3000 RMK AO2 SLP168 T10451070
                 =
2017-11-24 04:56 METAR KCEF 240956Z AUTO 00000KT 10SM CLR M05/M07 A2998 RMK AO2 SLP161 T10501071
                 =
2017-11-24 03:56 METAR KCEF 240856Z AUTO 00000KT 10SM CLR M05/M08 A2998 RMK AO2 SLP161 T10481076
                 50001 =
2017-11-24 02:56 METAR KCEF 240756Z AUTO 00000KT 10SM CLR M03/M07 A2998 RMK AO2 SLP160 T10331068
                 =
2017-11-24 01:56 METAR KCEF 240656Z AUTO 00000KT 10SM BKN070 M03/M07 A2999 RMK AO2 SLP164
                 T10311069 =
2017-11-24 00:56 METAR KCEF 240556Z AUTO 16003KT 10SM CLR M02/M07 A2998 RMK AO2 SLP160 T10241069
                 10013 21032 50000 =
2017-11-23 23:56 METAR KCEF 240456Z AUTO 19003KT 10SM SCT100 M02/M07 A2999 RMK AO2 SLP164
                 T10181067 400611059 =
2017-11-23 22:56 METAR KCEF 240356Z AUTO 18003KT 10SM OVC100 M01/M07 A2998 RMK AO2 SLP161
                 T10061068 =
2017-11-23 21:56 METAR KCEF 240256Z AUTO 00000KT 10SM OVC095 M01/M05 A2998 RMK AO2 SLP161
                 T10141051 50001 =
2017-11-23 20:56 METAR KCEF 240156Z AUTO 26003KT 10SM BKN095 M02/M07 A2999 RMK AO2 SLP164
                 T10181075 =
2017-11-23 19:56 METAR KCEF 240056Z AUTO 27003KT 10SM CLR 01/M09 A2999 RMK AO2 SLP164 T00091089 =
2017-11-23 18:56 METAR KCEF 232356Z AUTO 26004KT 10SM SCT160 01/M08 A2998 RMK AO2 SLP161
                 T00141084 10061 20006 50004 =
2017-11-23 17:56 METAR KCEF 232256Z AUTO 29006KT 10SM FEW180 01/M08 A2997 RMK AO2 SLP158
                 T00121083 =
2017-11-23 16:56 METAR KCEF 232156Z AUTO 29008KT 10SM FEW190 SCT220 03/M09 A2997 RMK AO2 SLP157
                 T00301090 =
2017-11-23 15:56 METAR KCEF 232056Z AUTO 25006KT 10SM CLR 05/M09 A2996 RMK AO2 SLP154 T00461089
                 55009 =
2017-11-23 14:56 METAR KCEF 231956Z AUTO 27004KT 10SM FEW200 06/M10 A2996 RMK AO2 SLP154
                 T00611098 =
2017-11-23 13:56 METAR KCEF 231856Z AUTO 31003KT 10SM CLR 06/M10 A2998 RMK AO2 SLP160 T00581100 =
2017-11-23 12:56 METAR KCEF 231756Z AUTO 21005KT 10SM CLR 05/M08 A2999 RMK AO2 SLP164 T00501085
                 10050 21023 57020 =
2017-11-23 11:56 METAR KCEF 231656Z AUTO 28004KT 10SM CLR 04/M09 A3001 RMK AO2 SLP170 T00391088 =
2017-11-23 10:56 METAR KCEF 231556Z AUTO 30005KT 10SM CLR 03/M09 A3004 RMK AO2 SLP181 T00301087 =
2017-11-23 09:56 METAR KCEF 231456Z AUTO 36003KT 10SM CLR 01/M08 A3005 RMK AO2 SLP184 T00121083
                 50007 =
2017-11-23 08:56 METAR KCEF 231356Z AUTO 32008KT 10SM CLR 00/M08 A3004 RMK AO2 SLP181 T10011081 =

Support USWX by starting your Amazon purchase here.